createdAt,value
2022-08-24T00:01:55.473Z,19.30
2022-08-24T00:04:23.958Z,19.30
2022-08-24T00:06:52.888Z,19.30
2022-08-24T00:09:20.945Z,19.30
2022-08-24T00:11:49.032Z,19.30
2022-08-24T00:14:19.378Z,19.30
2022-08-24T00:16:48.051Z,19.30
2022-08-24T00:19:16.297Z,19.40
2022-08-24T00:21:44.539Z,19.40
2022-08-24T00:24:12.792Z,19.30
2022-08-24T00:26:40.812Z,19.30
2022-08-24T00:29:09.004Z,19.10
2022-08-24T00:31:38.530Z,19.10
2022-08-24T00:34:07.379Z,19.00
2022-08-24T00:36:36.037Z,18.80
2022-08-24T00:39:06.371Z,18.60
2022-08-24T00:41:34.827Z,18.50
2022-08-24T00:44:05.682Z,18.40
2022-08-24T00:46:43.490Z,18.30
2022-08-24T00:49:18.511Z,18.30
2022-08-24T00:51:55.509Z,18.30
2022-08-24T00:54:26.019Z,18.30
2022-08-24T00:57:03.502Z,18.30
2022-08-24T00:59:35.189Z,18.30
2022-08-24T01:02:15.402Z,18.20
2022-08-24T01:04:49.759Z,18.20
2022-08-24T01:07:18.189Z,18.10
2022-08-24T01:09:46.382Z,18.10
2022-08-24T01:12:14.539Z,18.00
2022-08-24T01:14:42.630Z,18.00
2022-08-24T01:17:29.626Z,18.00
2022-08-24T01:19:59.791Z,18.00
2022-08-24T01:22:47.614Z,18.00
2022-08-24T01:25:17.759Z,18.10
2022-08-24T01:27:47.640Z,18.00
2022-08-24T01:30:18.625Z,18.00
2022-08-24T01:32:55.170Z,17.90
2022-08-24T01:35:23.712Z,17.80
2022-08-24T01:37:54.430Z,17.70
2022-08-24T01:40:37.906Z,17.70
2022-08-24T01:43:08.205Z,17.60
2022-08-24T01:45:36.273Z,17.50
2022-08-24T01:48:06.241Z,17.50
2022-08-24T01:50:35.018Z,17.40
2022-08-24T01:53:06.230Z,17.40
2022-08-24T01:55:36.875Z,17.40
2022-08-24T01:58:06.251Z,17.40
2022-08-24T02:00:36.570Z,17.40
2022-08-24T02:03:05.353Z,17.50
2022-08-24T02:05:34.528Z,17.60
2022-08-24T02:08:02.678Z,17.50
2022-08-24T02:10:31.683Z,17.40
2022-08-24T02:13:01.113Z,17.30
2022-08-24T02:15:32.925Z,17.10
2022-08-24T02:18:01.917Z,16.90
2022-08-24T02:20:30.365Z,16.80
2022-08-24T02:22:58.768Z,16.70
2022-08-24T02:25:30.399Z,16.60
2022-08-24T02:28:01.013Z,16.50
2022-08-24T02:30:30.036Z,16.60
2022-08-24T02:32:59.028Z,16.60
2022-08-24T02:35:28.475Z,16.60
2022-08-24T02:37:56.816Z,16.70
2022-08-24T02:40:25.593Z,16.70
2022-08-24T02:42:54.154Z,16.70
2022-08-24T02:45:24.237Z,16.60
2022-08-24T02:47:52.298Z,16.50
2022-08-24T02:50:21.445Z,16.30
2022-08-24T02:52:50.226Z,16.20
2022-08-24T02:55:20.602Z,16.20
2022-08-24T02:57:52.121Z,16.10
2022-08-24T03:00:23.251Z,16.00
2022-08-24T03:02:56.666Z,16.00
2022-08-24T03:05:26.003Z,15.90
2022-08-24T03:07:54.645Z,15.80
2022-08-24T03:10:22.836Z,15.70
2022-08-24T03:12:51.129Z,15.70
2022-08-24T03:15:22.688Z,15.70
2022-08-24T03:17:51.819Z,15.70
2022-08-24T03:20:23.652Z,15.70
2022-08-24T03:22:52.165Z,15.80
2022-08-24T03:25:24.443Z,15.80
2022-08-24T03:27:53.065Z,15.90
2022-08-24T03:30:21.820Z,15.90
2022-08-24T03:32:50.855Z,15.80
2022-08-24T03:35:22.023Z,15.80
2022-08-24T03:37:50.490Z,15.80
2022-08-24T03:40:22.841Z,15.90
2022-08-24T03:42:55.584Z,16.00
2022-08-24T03:45:24.082Z,16.00
2022-08-24T03:47:53.264Z,16.00
2022-08-24T03:50:24.263Z,15.90
2022-08-24T03:52:53.122Z,15.80
2022-08-24T03:55:21.454Z,15.70
2022-08-24T03:57:49.481Z,15.60
2022-08-24T04:00:18.051Z,15.60
2022-08-24T04:02:55.201Z,15.60
2022-08-24T04:05:27.075Z,15.40
2022-08-24T04:07:55.576Z,15.40
2022-08-24T04:10:24.488Z,15.30
2022-08-24T04:12:54.961Z,15.30
2022-08-24T04:15:24.422Z,15.30
2022-08-24T04:17:53.034Z,15.20
2022-08-24T04:20:21.079Z,15.20
2022-08-24T04:22:53.790Z,15.30
2022-08-24T04:25:25.291Z,15.30
2022-08-24T04:27:53.616Z,15.40
2022-08-24T04:30:24.693Z,15.40
2022-08-24T04:33:06.628Z,15.60
2022-08-24T04:35:39.003Z,15.60
2022-08-24T04:38:09.318Z,15.70
2022-08-24T04:40:40.563Z,15.60
2022-08-24T04:43:10.294Z,15.60
2022-08-24T04:45:40.101Z,15.50
2022-08-24T04:48:09.165Z,15.50
2022-08-24T04:50:37.566Z,15.40
2022-08-24T04:53:08.461Z,15.40
2022-08-24T04:55:44.888Z,15.50
2022-08-24T04:58:14.189Z,15.50
2022-08-24T05:00:42.433Z,15.50
2022-08-24T05:03:11.294Z,15.60
2022-08-24T05:05:42.585Z,15.60
2022-08-24T05:08:12.400Z,15.70
2022-08-24T05:10:42.489Z,15.80
2022-08-24T05:13:11.239Z,15.90
2022-08-24T05:15:43.072Z,16.00
2022-08-24T05:18:13.290Z,16.10
2022-08-24T05:20:42.548Z,16.20
2022-08-24T05:23:13.677Z,16.30
2022-08-24T05:25:43.264Z,16.40
2022-08-24T05:28:11.306Z,16.40
2022-08-24T05:30:42.749Z,16.60
2022-08-24T05:33:12.567Z,16.70
2022-08-24T05:35:43.825Z,16.80
2022-08-24T05:38:14.056Z,16.90
2022-08-24T05:40:43.652Z,16.90
2022-08-24T05:43:12.554Z,17.10
2022-08-24T05:45:43.400Z,17.20
2022-08-24T05:48:12.735Z,17.40
2022-08-24T05:50:59.709Z,17.50
2022-08-24T05:53:33.827Z,17.70
2022-08-24T05:56:04.963Z,17.90
2022-08-24T05:58:33.099Z,18.00
2022-08-24T06:01:08.332Z,18.10
2022-08-24T06:03:36.482Z,18.20
2022-08-24T06:06:07.411Z,18.30
2022-08-24T06:08:41.451Z,18.40
2022-08-24T06:11:11.712Z,18.60
2022-08-24T06:13:40.200Z,18.80
2022-08-24T06:16:21.289Z,18.90
2022-08-24T06:18:51.512Z,19.10
2022-08-24T06:21:22.332Z,19.30
2022-08-24T06:23:52.093Z,19.40
2022-08-24T06:26:39.016Z,19.60
2022-08-24T06:29:08.012Z,19.70
2022-08-24T06:31:44.658Z,19.80
2022-08-24T06:34:17.412Z,19.90
2022-08-24T06:36:46.104Z,20.00
2022-08-24T06:39:15.849Z,20.10
2022-08-24T06:41:46.792Z,20.20
2022-08-24T06:44:21.585Z,20.30
2022-08-24T06:46:56.980Z,20.40
2022-08-24T06:49:25.354Z,20.50
2022-08-24T06:51:53.520Z,20.50
2022-08-24T06:54:23.029Z,20.60
2022-08-24T06:56:51.536Z,20.70
2022-08-24T06:59:20.752Z,20.80
2022-08-24T07:01:49.364Z,20.90
2022-08-24T07:04:18.935Z,21.00
2022-08-24T07:07:05.841Z,21.10
2022-08-24T07:09:35.942Z,21.30
2022-08-24T07:12:04.601Z,21.40
2022-08-24T07:14:32.730Z,21.50
2022-08-24T07:17:02.915Z,21.60
2022-08-24T07:19:33.039Z,21.70
2022-08-24T07:22:01.957Z,21.90
2022-08-24T07:24:29.926Z,22.00
2022-08-24T07:27:00.272Z,22.10
2022-08-24T07:29:47.286Z,22.20
2022-08-24T07:32:17.425Z,22.30
2022-08-24T07:34:46.934Z,22.40
2022-08-24T07:37:15.069Z,22.50
2022-08-24T07:39:47.426Z,22.60
2022-08-24T07:42:26.887Z,22.60
2022-08-24T07:45:00.403Z,22.70
2022-08-24T07:47:38.151Z,22.80
2022-08-24T07:50:17.598Z,22.80
2022-08-24T07:52:46.703Z,22.90
2022-08-24T07:55:15.875Z,22.90
2022-08-24T07:57:46.220Z,23.00
2022-08-24T08:00:17.145Z,23.10
2022-08-24T08:02:50.455Z,23.20
2022-08-24T08:05:22.603Z,23.30
2022-08-24T08:07:53.877Z,23.40
2022-08-24T08:10:23.331Z,23.50
2022-08-24T08:12:54.112Z,23.60
2022-08-24T08:15:22.229Z,23.60
2022-08-24T08:18:11.035Z,23.70
2022-08-24T08:20:42.816Z,23.70
2022-08-24T08:23:29.029Z,23.80
2022-08-24T08:26:15.277Z,23.80
2022-08-24T08:28:58.642Z,24.00
2022-08-24T08:31:26.766Z,24.20
2022-08-24T08:33:55.414Z,24.20
2022-08-24T08:36:24.937Z,24.20
2022-08-24T08:38:53.085Z,24.20
2022-08-24T08:42:07.325Z,24.30
2022-08-24T08:45:04.254Z,24.40
2022-08-24T08:48:11.627Z,24.40
2022-08-24T08:51:12.132Z,24.70
2022-08-24T08:54:12.545Z,24.80
2022-08-24T08:56:50.058Z,24.90
2022-08-24T08:59:36.686Z,24.90
2022-08-24T09:02:27.493Z,25.10
2022-08-24T09:05:48.584Z,25.30
2022-08-24T09:08:29.020Z,25.50
2022-08-24T09:11:01.832Z,25.70
2022-08-24T09:13:54.504Z,25.90
2022-08-24T09:17:10.872Z,26.20
2022-08-24T09:20:00.398Z,26.40
2022-08-24T09:22:28.667Z,26.50
2022-08-24T09:25:26.658Z,26.60
2022-08-24T09:28:21.464Z,26.70
2022-08-24T09:31:29.047Z,27.00
2022-08-24T09:34:09.468Z,27.20
2022-08-24T09:36:54.886Z,27.30
2022-08-24T09:39:37.822Z,27.40
2022-08-24T09:42:46.007Z,27.60
2022-08-24T09:46:02.533Z,27.70
2022-08-24T09:48:47.568Z,28.00
2022-08-24T09:51:43.842Z,28.30
2022-08-24T09:54:59.207Z,28.30
2022-08-24T09:57:59.801Z,28.50
2022-08-24T10:00:32.009Z,28.50
2022-08-24T10:03:08.304Z,28.70
2022-08-24T10:06:04.534Z,28.90
2022-08-24T10:08:56.151Z,28.90
2022-08-24T10:11:35.638Z,28.90
2022-08-24T10:14:10.562Z,29.20
2022-08-24T10:16:45.761Z,29.60
2022-08-24T10:19:31.507Z,30.00
2022-08-24T10:22:14.179Z,30.20
2022-08-24T10:25:08.964Z,30.30
2022-08-24T10:27:56.558Z,30.50
2022-08-24T10:30:56.598Z,30.30
2022-08-24T10:33:28.281Z,30.30
2022-08-24T10:36:26.008Z,30.30
2022-08-24T10:39:40.682Z,30.60
2022-08-24T10:42:54.917Z,30.30
2022-08-24T10:45:49.670Z,30.20
2022-08-24T10:48:37.121Z,30.30
2022-08-24T10:51:24.541Z,30.60
2022-08-24T10:53:54.865Z,31.00
2022-08-24T10:56:35.996Z,31.00
2022-08-24T10:59:16.692Z,30.80
2022-08-24T11:02:02.785Z,30.90
2022-08-24T11:04:40.586Z,31.00
2022-08-24T11:07:16.898Z,31.40
2022-08-24T11:09:48.646Z,31.60
2022-08-24T11:12:27.469Z,31.60
2022-08-24T11:14:57.983Z,31.70
2022-08-24T11:17:30.632Z,32.00
2022-08-24T11:19:59.314Z,31.70
2022-08-24T11:22:58.968Z,31.60
2022-08-24T11:25:30.257Z,31.80
2022-08-24T11:28:09.147Z,32.00
2022-08-24T11:30:41.117Z,32.00
2022-08-24T11:33:28.272Z,32.00
2022-08-24T11:35:57.370Z,32.00
2022-08-24T11:38:27.635Z,32.10
2022-08-24T11:41:03.311Z,32.00
2022-08-24T11:43:53.544Z,32.10
2022-08-24T11:46:33.515Z,32.00
2022-08-24T11:49:10.745Z,32.10
2022-08-24T11:51:49.744Z,32.10
2022-08-24T11:54:27.674Z,32.10
2022-08-24T11:57:12.280Z,31.70
2022-08-24T11:59:51.714Z,31.90
2022-08-24T12:02:27.765Z,32.00
2022-08-24T12:05:04.660Z,32.20
2022-08-24T12:07:51.670Z,32.70
2022-08-24T12:10:32.127Z,33.20
2022-08-24T12:13:07.460Z,33.90
2022-08-24T12:15:45.899Z,34.00
2022-08-24T12:18:27.212Z,34.50
2022-08-24T12:20:58.294Z,34.30
2022-08-24T12:23:33.090Z,33.70
2022-08-24T12:26:05.623Z,33.70
2022-08-24T12:28:39.329Z,33.50
2022-08-24T12:31:16.852Z,33.40
2022-08-24T12:33:49.940Z,33.80
2022-08-24T12:36:29.577Z,34.10
2022-08-24T12:39:09.889Z,33.50
2022-08-24T12:41:44.579Z,33.00
2022-08-24T12:44:16.036Z,32.70
2022-08-24T12:46:44.931Z,32.50
2022-08-24T12:49:20.684Z,32.60
2022-08-24T12:52:05.326Z,32.90
2022-08-24T12:54:50.468Z,32.70
2022-08-24T12:57:35.781Z,32.70
2022-08-24T13:00:10.150Z,32.80
2022-08-24T13:02:47.909Z,33.30
2022-08-24T13:05:19.132Z,33.80
2022-08-24T13:07:51.733Z,33.80
2022-08-24T13:10:37.760Z,34.00
2022-08-24T13:13:20.984Z,34.50
2022-08-24T13:15:56.441Z,34.80
2022-08-24T13:18:53.469Z,34.90
2022-08-24T13:21:44.119Z,35.10
2022-08-24T13:24:50.216Z,36.10
2022-08-24T13:28:01.790Z,35.70
2022-08-24T13:30:53.513Z,35.90
2022-08-24T13:33:31.307Z,35.80
2022-08-24T13:36:06.719Z,35.10
2022-08-24T13:39:00.693Z,34.40
2022-08-24T13:41:55.113Z,34.10
2022-08-24T13:44:38.393Z,34.30
2022-08-24T13:47:15.258Z,34.50
2022-08-24T13:49:54.185Z,34.80
2022-08-24T13:52:31.733Z,35.20
2022-08-24T13:55:29.396Z,35.40
2022-08-24T13:58:11.806Z,35.40
2022-08-24T14:00:45.431Z,35.60
2022-08-24T14:03:45.947Z,35.80
2022-08-24T14:06:28.735Z,35.70
2022-08-24T14:09:19.262Z,36.20
2022-08-24T14:12:16.798Z,36.20
2022-08-24T14:15:11.831Z,36.00
2022-08-24T14:18:03.591Z,36.40
2022-08-24T14:21:05.621Z,35.80
2022-08-24T14:23:50.150Z,35.80
2022-08-24T14:27:01.422Z,35.80
2022-08-24T14:29:40.406Z,35.50
2022-08-24T14:32:47.580Z,35.20
2022-08-24T14:35:32.938Z,35.30
2022-08-24T14:38:30.808Z,35.90
2022-08-24T14:41:07.574Z,36.00
2022-08-24T14:43:53.681Z,36.40
2022-08-24T14:46:33.803Z,36.20
2022-08-24T14:49:13.827Z,35.70
2022-08-24T14:52:01.942Z,35.50
2022-08-24T14:54:41.220Z,35.70
2022-08-24T14:57:24.235Z,35.50
2022-08-24T15:00:08.352Z,35.90
2022-08-24T15:03:16.572Z,36.20
2022-08-24T15:06:25.692Z,36.90
2022-08-24T15:08:55.752Z,36.90
2022-08-24T15:11:27.247Z,36.50
2022-08-24T15:13:58.783Z,35.90
2022-08-24T15:16:34.157Z,35.60
2022-08-24T15:19:08.760Z,35.30
2022-08-24T15:21:49.920Z,34.50
2022-08-24T15:24:33.010Z,34.60
2022-08-24T15:27:10.808Z,35.20
2022-08-24T15:29:51.007Z,35.70
2022-08-24T15:32:19.455Z,35.80
2022-08-24T15:34:51.141Z,35.70
2022-08-24T15:37:30.408Z,35.70
2022-08-24T15:39:59.605Z,35.40
2022-08-24T15:42:30.377Z,35.20
2022-08-24T15:45:02.125Z,35.00
2022-08-24T15:47:32.796Z,35.20
2022-08-24T15:50:03.604Z,35.20
2022-08-24T15:52:50.643Z,35.30
2022-08-24T15:55:33.414Z,35.30
2022-08-24T15:58:34.487Z,35.40
2022-08-24T16:01:38.929Z,35.90
2022-08-24T16:04:09.762Z,36.20
2022-08-24T16:06:42.344Z,36.60
2022-08-24T16:09:17.233Z,36.80
2022-08-24T16:11:49.780Z,36.40
2022-08-24T16:14:28.413Z,36.00
2022-08-24T16:16:57.810Z,35.60
2022-08-24T16:19:28.520Z,35.20
2022-08-24T16:22:01.305Z,34.90
2022-08-24T16:24:34.111Z,34.60
2022-08-24T16:27:07.728Z,34.60
2022-08-24T16:29:59.705Z,34.30
2022-08-24T16:32:31.672Z,34.20
2022-08-24T16:35:17.667Z,33.70
2022-08-24T16:37:45.745Z,32.90
2022-08-24T16:40:15.300Z,33.00
2022-08-24T16:42:43.649Z,33.10
2022-08-24T16:45:14.910Z,32.70
2022-08-24T16:47:43.014Z,32.50
2022-08-24T16:50:11.256Z,32.50
2022-08-24T16:52:39.558Z,32.90
2022-08-24T16:55:08.807Z,33.20
2022-08-24T16:57:39.480Z,33.10
2022-08-24T17:00:10.194Z,32.80
2022-08-24T17:02:38.209Z,32.60
2022-08-24T17:05:06.949Z,32.50
2022-08-24T17:07:35.039Z,32.10
2022-08-24T17:10:05.772Z,31.90
2022-08-24T17:12:36.001Z,32.00
2022-08-24T17:15:06.149Z,32.00
2022-08-24T17:17:35.093Z,32.30
2022-08-24T17:20:03.820Z,32.60
2022-08-24T17:22:32.334Z,32.40
2022-08-24T17:25:00.608Z,32.30
2022-08-24T17:27:33.188Z,32.10
2022-08-24T17:30:03.241Z,32.10
2022-08-24T17:32:33.085Z,31.80
2022-08-24T17:35:03.111Z,31.50
2022-08-24T17:37:31.368Z,30.90
2022-08-24T17:40:00.982Z,30.40
2022-08-24T17:42:49.541Z,29.90
2022-08-24T17:45:17.472Z,29.50
2022-08-24T17:47:47.308Z,29.30
2022-08-24T17:50:16.436Z,29.00
2022-08-24T17:52:45.099Z,28.80
2022-08-24T17:55:17.146Z,28.70
2022-08-24T17:57:52.595Z,28.60
2022-08-24T18:00:20.865Z,28.60
2022-08-24T18:02:50.728Z,28.40
2022-08-24T18:05:19.616Z,28.20
2022-08-24T18:07:54.316Z,28.10
2022-08-24T18:10:25.126Z,28.00
2022-08-24T18:12:53.527Z,27.90
2022-08-24T18:15:22.020Z,27.80
2022-08-24T18:18:09.385Z,27.80
2022-08-24T18:20:41.089Z,27.70
2022-08-24T18:23:11.389Z,27.60
2022-08-24T18:25:43.930Z,27.50
2022-08-24T18:28:12.330Z,27.40
2022-08-24T18:30:41.547Z,27.40
2022-08-24T18:33:10.855Z,27.30
2022-08-24T18:35:39.121Z,27.20
2022-08-24T18:38:07.240Z,27.20
2022-08-24T18:40:36.221Z,27.10
2022-08-24T18:43:05.273Z,27.00
2022-08-24T18:45:35.139Z,27.00
2022-08-24T18:48:03.891Z,26.90
2022-08-24T18:50:37.671Z,26.90
2022-08-24T18:53:09.474Z,26.90
2022-08-24T18:55:39.022Z,26.80
2022-08-24T18:58:07.645Z,26.80
2022-08-24T19:00:36.440Z,26.70
2022-08-24T19:03:08.251Z,26.60
2022-08-24T19:05:38.368Z,26.60
2022-08-24T19:08:06.598Z,26.50
2022-08-24T19:10:37.545Z,26.40
2022-08-24T19:13:09.679Z,26.40
2022-08-24T19:15:40.331Z,26.30
2022-08-24T19:18:09.812Z,26.20
2022-08-24T19:20:44.520Z,26.20
2022-08-24T19:23:20.312Z,26.10
2022-08-24T19:25:49.425Z,25.90
2022-08-24T19:28:18.747Z,25.70
2022-08-24T19:30:48.882Z,25.60
2022-08-24T19:33:24.108Z,25.50
2022-08-24T19:35:54.033Z,25.30
2022-08-24T19:38:25.742Z,25.20
2022-08-24T19:40:57.007Z,25.00
2022-08-24T19:43:26.766Z,24.90
2022-08-24T19:46:05.713Z,24.80
2022-08-24T19:48:36.091Z,24.60
2022-08-24T19:51:09.759Z,24.50
2022-08-24T19:53:39.487Z,24.50
2022-08-24T19:56:08.874Z,24.40
2022-08-24T19:58:46.355Z,24.40
2022-08-24T20:01:19.980Z,24.30
2022-08-24T20:03:48.165Z,24.30
2022-08-24T20:06:21.101Z,24.20
2022-08-24T20:08:49.667Z,24.10
2022-08-24T20:11:19.039Z,24.00
2022-08-24T20:13:50.205Z,24.00
2022-08-24T20:16:20.395Z,23.90
2022-08-24T20:18:48.891Z,23.80
2022-08-24T20:21:18.605Z,23.70
2022-08-24T20:23:47.797Z,23.80
2022-08-24T20:26:16.796Z,23.80
2022-08-24T20:28:49.062Z,23.70
2022-08-24T20:31:18.707Z,23.80
2022-08-24T20:33:47.030Z,23.70
2022-08-24T20:36:23.882Z,23.70
2022-08-24T20:38:52.260Z,23.70
2022-08-24T20:41:20.330Z,23.70
2022-08-24T20:43:49.086Z,23.70
2022-08-24T20:46:17.557Z,23.60
2022-08-24T20:48:47.521Z,23.70
2022-08-24T20:51:25.569Z,23.60
2022-08-24T20:53:53.702Z,23.50
2022-08-24T20:56:31.078Z,23.50
2022-08-24T20:58:59.995Z,23.50
2022-08-24T21:01:28.014Z,23.40
2022-08-24T21:03:57.748Z,23.30
2022-08-24T21:06:32.280Z,23.20
2022-08-24T21:09:00.687Z,23.10
2022-08-24T21:11:29.307Z,23.00
2022-08-24T21:13:57.313Z,22.90
2022-08-24T21:16:25.301Z,22.80
2022-08-24T21:18:53.598Z,22.70
2022-08-24T21:21:21.648Z,22.70
2022-08-24T21:23:50.940Z,22.60
2022-08-24T21:26:24.897Z,22.50
2022-08-24T21:28:53.122Z,22.30
2022-08-24T21:31:21.184Z,22.30
2022-08-24T21:34:06.538Z,22.20
2022-08-24T21:36:34.575Z,22.10
2022-08-24T21:39:08.772Z,22.00
2022-08-24T21:41:39.374Z,22.00
2022-08-24T21:44:07.646Z,21.90
2022-08-24T21:46:38.209Z,21.90
2022-08-24T21:49:06.681Z,21.80
2022-08-24T21:51:34.688Z,21.80
2022-08-24T21:54:04.065Z,21.70
2022-08-24T21:56:33.417Z,21.70
2022-08-24T21:59:02.757Z,21.60
2022-08-24T22:01:30.897Z,21.50
2022-08-24T22:03:59.458Z,21.40
2022-08-24T22:06:31.312Z,21.40
2022-08-24T22:09:00.218Z,21.30
2022-08-24T22:11:30.649Z,21.30
2022-08-24T22:13:59.068Z,21.20
2022-08-24T22:16:27.153Z,21.20
2022-08-24T22:18:55.509Z,21.20
2022-08-24T22:21:25.439Z,21.10
2022-08-24T22:23:53.404Z,21.10
2022-08-24T22:26:25.549Z,21.10
2022-08-24T22:28:56.613Z,21.10
2022-08-24T22:31:27.348Z,21.00
2022-08-24T22:33:58.108Z,21.00
2022-08-24T22:36:28.096Z,20.90
2022-08-24T22:38:57.018Z,20.80
2022-08-24T22:41:25.558Z,20.80
2022-08-24T22:44:13.586Z,20.80
2022-08-24T22:46:42.020Z,20.70
2022-08-24T22:49:11.080Z,20.70
2022-08-24T22:51:39.896Z,20.60
2022-08-24T22:54:09.119Z,20.60
2022-08-24T22:56:41.674Z,20.50
2022-08-24T22:59:16.245Z,20.50
2022-08-24T23:01:46.300Z,20.50
2022-08-24T23:04:19.159Z,20.50
2022-08-24T23:06:47.653Z,20.50
2022-08-24T23:09:15.711Z,20.50
2022-08-24T23:11:43.937Z,20.40
2022-08-24T23:14:14.588Z,20.40
2022-08-24T23:16:47.658Z,20.30
2022-08-24T23:19:34.268Z,20.30
2022-08-24T23:22:02.511Z,20.30
2022-08-24T23:24:31.009Z,20.30
2022-08-24T23:26:59.115Z,20.20
2022-08-24T23:29:28.567Z,20.20
2022-08-24T23:31:56.642Z,20.20
2022-08-24T23:34:24.620Z,20.20
2022-08-24T23:36:52.695Z,20.10
2022-08-24T23:39:21.348Z,20.20
2022-08-24T23:41:50.793Z,20.10
2022-08-24T23:44:21.792Z,20.20
2022-08-24T23:46:51.203Z,20.10
2022-08-24T23:49:20.954Z,20.20
2022-08-24T23:51:49.303Z,20.20
2022-08-24T23:54:18.617Z,20.30
2022-08-24T23:56:47.993Z,20.30
2022-08-24T23:59:18.957Z,20.40
